Time;durP1;ratioP1;P1;durP2;ratioP2;P2;SDS_P1;SDS_P2;PMS_P1;PMS_P2;Temp;Humidity;BMP_temperature;BMP_pressure;BME280_temperature;BME280_humidity;BME280_pressure;Samples;Min_cycle;Max_cycle;Signal;HPM_P1;HPM_P2
2023/01/06 00:01:23;;;;;;;9.97;8.17;;;;;;;;;;5118424;28;20715;-60
2023/01/06 00:03:51;;;;;;;10.60;8.40;;;;;;;;;;5118365;28;20259;-59
2023/01/06 00:06:21;;;;;;;9.27;7.20;;;;;;;;;;5117832;28;20204;-60
2023/01/06 00:08:49;;;;;;;10.60;7.87;;;;;;;;;;5117674;28;20272;-60
2023/01/06 00:11:18;;;;;;;11.10;8.70;;;;;;;;;;5118530;28;20215;-59
2023/01/06 00:13:46;;;;;;;11.87;8.87;;;;;;;;;;5118481;28;20256;-60
2023/01/06 00:16:16;;;;;;;10.17;7.90;;;;;;;;;;5118158;28;20208;-59
2023/01/06 00:18:45;;;;;;;8.93;7.20;;;;;;;;;;5118508;28;20214;-60
2023/01/06 00:21:14;;;;;;;9.53;7.53;;;;;;;;;;5118142;28;20212;-59
2023/01/06 00:23:42;;;;;;;10.37;8.07;;;;;;;;;;5118210;28;20232;-60
2023/01/06 00:26:10;;;;;;;9.27;7.00;;;;;;;;;;5118475;28;20204;-60
2023/01/06 00:28:38;;;;;;;11.20;7.57;;;;;;;;;;5118333;28;20211;-59
2023/01/06 00:31:07;;;;;;;9.73;7.50;;;;;;;;;;5118385;28;20201;-60
2023/01/06 00:33:35;;;;;;;10.17;7.87;;;;;;;;;;5118208;28;20278;-60
2023/01/06 00:36:05;;;;;;;8.67;7.10;;;;;;;;;;5118031;28;20226;-60
2023/01/06 00:38:35;;;;;;;7.80;6.80;;;;;;;;;;5118017;28;20212;-60
2023/01/06 00:41:03;;;;;;;8.50;6.30;;;;;;;;;;5118377;28;20234;-59
2023/01/06 00:43:31;;;;;;;6.93;6.23;;;;;;;;;;5117713;28;20307;-59
2023/01/06 00:46:01;;;;;;;8.93;6.67;;;;;;;;;;5118034;28;20754;-59
2023/01/06 00:48:29;;;;;;;9.07;6.97;;;;;;;;;;5118183;28;20244;-60
2023/01/06 00:51:00;;;;;;;8.30;6.47;;;;;;;;;;5117902;28;20235;-60
2023/01/06 00:53:29;;;;;;;8.00;6.00;;;;;;;;;;5117808;28;20331;-60
2023/01/06 00:55:59;;;;;;;7.07;6.30;;;;;;;;;;5117881;28;20265;-60
2023/01/06 00:58:29;;;;;;;9.43;6.50;;;;;;;;;;5104223;28;20233;-60
2023/01/06 01:00:57;;;;;;;6.70;6.00;;;;;;;;;;5118334;28;20204;-60
2023/01/06 01:03:25;;;;;;;6.93;6.00;;;;;;;;;;5118070;28;20233;-60
2023/01/06 01:05:58;;;;;;;7.03;6.03;;;;;;;;;;5117525;28;20225;-59
2023/01/06 01:08:26;;;;;;;7.27;5.90;;;;;;;;;;5118286;28;20248;-59
2023/01/06 01:10:56;;;;;;;8.00;5.50;;;;;;;;;;5117778;28;20236;-60
2023/01/06 01:13:24;;;;;;;7.90;6.17;;;;;;;;;;5117824;28;20296;-60
2023/01/06 01:15:52;;;;;;;7.07;6.00;;;;;;;;;;5117940;28;20208;-60
2023/01/06 01:18:20;;;;;;;7.70;5.60;;;;;;;;;;5118010;28;20209;-60
2023/01/06 01:20:48;;;;;;;7.03;5.60;;;;;;;;;;5119527;28;20244;-60
2023/01/06 01:23:16;;;;;;;7.00;5.17;;;;;;;;;;5121752;28;20236;-60
2023/01/06 01:25:44;;;;;;;5.53;4.87;;;;;;;;;;5121364;28;20225;-60
2023/01/06 01:28:13;;;;;;;7.93;5.13;;;;;;;;;;5121527;28;20572;-60
2023/01/06 01:30:41;;;;;;;5.53;5.03;;;;;;;;;;5121533;28;20236;-59
2023/01/06 01:33:09;;;;;;;7.27;5.83;;;;;;;;;;5121299;28;20224;-60
2023/01/06 01:35:37;;;;;;;7.80;5.03;;;;;;;;;;5121129;28;20231;-60
2023/01/06 01:38:05;;;;;;;8.13;5.70;;;;;;;;;;5121787;28;20219;-60
2023/01/06 01:40:33;;;;;;;7.87;5.30;;;;;;;;;;5121106;28;20201;-60
2023/01/06 01:43:01;;;;;;;4.93;4.23;;;;;;;;;;5121058;28;20252;-60
2023/01/06 01:45:31;;;;;;;5.37;4.70;;;;;;;;;;5121400;28;20256;-60
2023/01/06 01:48:02;;;;;;;5.57;4.80;;;;;;;;;;5121240;28;20641;-61
2023/01/06 01:50:32;;;;;;;7.73;5.80;;;;;;;;;;5120646;28;20209;-60
2023/01/06 01:53:03;;;;;;;6.13;4.77;;;;;;;;;;5121158;28;20225;-60
2023/01/06 01:55:32;;;;;;;6.17;5.30;;;;;;;;;;5120957;28;20200;-60
2023/01/06 01:58:01;;;;;;;6.33;5.03;;;;;;;;;;5120532;28;20243;-60
2023/01/06 02:00:31;;;;;;;7.87;6.00;;;;;;;;;;5121058;28;20232;-61
2023/01/06 02:02:59;;;;;;;6.07;5.40;;;;;;;;;;5120859;28;20225;-61
2023/01/06 02:05:28;;;;;;;7.83;5.33;;;;;;;;;;5120342;28;20729;-60
2023/01/06 02:07:57;;;;;;;6.50;4.57;;;;;;;;;;5120900;28;20200;-61
2023/01/06 02:10:25;;;;;;;6.57;5.20;;;;;;;;;;5121016;28;20287;-59
2023/01/06 02:12:54;;;;;;;6.53;4.97;;;;;;;;;;5120937;28;20227;-61
2023/01/06 02:15:24;;;;;;;6.90;5.00;;;;;;;;;;5120635;28;20236;-59
2023/01/06 02:18:07;;;;;;;5.83;4.47;;;;;;;;;;5120462;28;20638;-60
2023/01/06 02:20:46;;;;;;;6.77;4.83;;;;;;;;;;5117246;28;20236;-60
2023/01/06 02:23:33;;;;;;;5.83;4.30;;;;;;;;;;5120544;28;20225;-61
2023/01/06 02:26:13;;;;;;;3.80;3.40;;;;;;;;;;5120190;28;20308;-60
2023/01/06 02:28:58;;;;;;;5.47;4.17;;;;;;;;;;5120228;28;20232;-61
2023/01/06 02:31:42;;;;;;;5.30;3.70;;;;;;;;;;5119419;28;20208;-61
2023/01/06 02:34:13;;;;;;;4.43;3.70;;;;;;;;;;5119981;28;20252;-60
2023/01/06 02:36:45;;;;;;;4.60;4.20;;;;;;;;;;5119865;28;20265;-60
2023/01/06 02:39:19;;;;;;;6.70;4.13;;;;;;;;;;5120357;28;20236;-61
2023/01/06 02:41:53;;;;;;;5.70;4.00;;;;;;;;;;5120138;28;20228;-60
2023/01/06 02:44:24;;;;;;;6.53;4.47;;;;;;;;;;5120034;28;20220;-61
2023/01/06 02:47:00;;;;;;;6.43;4.17;;;;;;;;;;5120049;28;20256;-61
2023/01/06 02:49:30;;;;;;;6.30;4.60;;;;;;;;;;5119751;28;20205;-61
2023/01/06 02:52:00;;;;;;;5.80;4.90;;;;;;;;;;5119525;28;20710;-61
2023/01/06 02:54:31;;;;;;;5.77;4.17;;;;;;;;;;5119590;28;20260;-61
2023/01/06 02:57:03;;;;;;;4.27;3.50;;;;;;;;;;5106303;28;20286;-61
2023/01/06 02:59:34;;;;;;;3.80;2.87;;;;;;;;;;5119487;28;20237;-61
2023/01/06 03:02:04;;;;;;;4.03;2.87;;;;;;;;;;5119962;28;20288;-61
2023/01/06 03:04:35;;;;;;;4.57;3.63;;;;;;;;;;5119597;28;20235;-60
2023/01/06 03:07:03;;;;;;;3.50;3.20;;;;;;;;;;5119226;28;20717;-60
2023/01/06 03:09:34;;;;;;;4.20;2.97;;;;;;;;;;5119479;28;20572;-61
2023/01/06 03:12:04;;;;;;;7.30;4.03;;;;;;;;;;5119744;28;20212;-61
2023/01/06 03:14:34;;;;;;;4.37;3.20;;;;;;;;;;5119220;28;20589;-60
2023/01/06 03:17:03;;;;;;;3.30;2.80;;;;;;;;;;5119316;28;20686;-61
2023/01/06 03:19:32;;;;;;;3.80;3.40;;;;;;;;;;5119358;28;20232;-60
2023/01/06 03:22:00;;;;;;;4.03;3.30;;;;;;;;;;5118927;28;20236;-61
2023/01/06 03:24:28;;;;;;;4.80;3.20;;;;;;;;;;5119078;28;20305;-60
2023/01/06 03:26:57;;;;;;;4.60;3.07;;;;;;;;;;5119007;28;20641;-60
2023/01/06 03:29:25;;;;;;;3.40;3.10;;;;;;;;;;5119185;28;20659;-60
2023/01/06 03:31:58;;;;;;;3.30;3.00;;;;;;;;;;5118936;28;20561;-61
2023/01/06 03:34:31;;;;;;;4.73;3.50;;;;;;;;;;5119213;28;20225;-59
2023/01/06 03:37:02;;;;;;;3.77;3.37;;;;;;;;;;5118625;28;20232;-61
2023/01/06 03:39:35;;;;;;;5.43;3.60;;;;;;;;;;5119253;28;20201;-61
2023/01/06 03:45:06;;;;;;;3.50;3.20;;;;;;;;;;5118717;28;20717;-61
2023/01/06 03:47:38;;;;;;;3.30;3.00;;;;;;;;;;5119113;28;20204;-60
2023/01/06 03:50:11;;;;;;;4.00;3.40;;;;;;;;;;5118760;28;20208;-60
2023/01/06 03:52:43;;;;;;;3.23;2.67;;;;;;;;;;5119128;28;20225;-59
2023/01/06 03:55:14;;;;;;;3.57;2.70;;;;;;;;;;5118614;28;20215;-61
2023/01/06 03:57:44;;;;;;;2.47;1.77;;;;;;;;;;5118328;28;20240;-60
2023/01/06 04:00:13;;;;;;;1.90;1.80;;;;;;;;;;5118610;28;20656;-60
2023/01/06 04:02:41;;;;;;;3.87;2.30;;;;;;;;;;5118374;28;20262;-60
2023/01/06 04:05:13;;;;;;;2.37;1.90;;;;;;;;;;5118569;28;20205;-60
2023/01/06 04:07:42;;;;;;;2.20;2.00;;;;;;;;;;5118348;28;20200;-60
2023/01/06 04:10:11;;;;;;;2.63;2.43;;;;;;;;;;5118425;28;20664;-61
2023/01/06 04:12:38;;;;;;;2.30;2.07;;;;;;;;;;5118527;28;20220;-61
2023/01/06 04:15:07;;;;;;;4.60;2.40;;;;;;;;;;5118420;28;20209;-61
2023/01/06 04:17:35;;;;;;;2.73;2.53;;;;;;;;;;5118331;28;20201;-61
2023/01/06 04:20:03;;;;;;;2.40;2.20;;;;;;;;;;5118179;28;20208;-60
2023/01/06 04:22:33;;;;;;;4.67;3.80;;;;;;;;;;5117968;28;20247;-61
2023/01/06 04:25:01;;;;;;;3.30;2.73;;;;;;;;;;5118257;28;20223;-61
2023/01/06 04:27:29;;;;;;;2.93;2.47;;;;;;;;;;5118300;28;20256;-60
2023/01/06 04:29:57;;;;;;;4.67;2.90;;;;;;;;;;5118271;28;20213;-60
2023/01/06 04:32:25;;;;;;;2.70;2.50;;;;;;;;;;5117991;28;20211;-61
2023/01/06 04:34:53;;;;;;;2.60;2.40;;;;;;;;;;5118073;28;20634;-60
2023/01/06 04:37:21;;;;;;;3.43;2.83;;;;;;;;;;5117715;28;20254;-61
2023/01/06 04:39:50;;;;;;;4.10;3.17;;;;;;;;;;5118148;28;20212;-61
2023/01/06 04:42:18;;;;;;;3.43;2.57;;;;;;;;;;5118235;28;20253;-61
2023/01/06 04:44:46;;;;;;;2.53;2.33;;;;;;;;;;5117968;28;20216;-61
2023/01/06 04:47:14;;;;;;;3.23;2.93;;;;;;;;;;5118224;28;20225;-61
2023/01/06 04:49:42;;;;;;;3.33;3.03;;;;;;;;;;5117800;28;20235;-61
2023/01/06 04:52:10;;;;;;;3.20;2.90;;;;;;;;;;5117965;28;20339;-61
2023/01/06 04:54:38;;;;;;;3.33;3.00;;;;;;;;;;5118014;28;20721;-61
2023/01/06 04:57:10;;;;;;;3.97;2.50;;;;;;;;;;5122471;28;20201;-61
2023/01/06 04:59:38;;;;;;;3.80;3.00;;;;;;;;;;5121857;28;20240;-61
2023/01/06 05:02:09;;;;;;;2.80;2.60;;;;;;;;;;5122269;28;20209;-61
2023/01/06 05:04:37;;;;;;;3.83;2.80;;;;;;;;;;5121638;28;20263;-62
2023/01/06 05:07:14;;;;;;;3.23;2.93;;;;;;;;;;5123661;27;20219;-61
2023/01/06 05:09:42;;;;;;;3.57;3.13;;;;;;;;;;5121797;28;20205;-60
2023/01/06 05:12:12;;;;;;;3.50;3.20;;;;;;;;;;5120211;28;20193;-61
2023/01/06 05:14:40;;;;;;;4.03;3.30;;;;;;;;;;5120617;28;20234;-61
2023/01/06 05:17:08;;;;;;;4.53;3.63;;;;;;;;;;5120517;28;20680;-61
2023/01/06 05:19:40;;;;;;;4.73;4.20;;;;;;;;;;5120992;28;20204;-61
2023/01/06 05:22:08;;;;;;;3.77;3.17;;;;;;;;;;5120713;28;20239;-61
2023/01/06 05:24:36;;;;;;;4.43;3.20;;;;;;;;;;5117478;28;20335;-60
2023/01/06 05:27:04;;;;;;;3.77;3.40;;;;;;;;;;5120375;28;20220;-61
2023/01/06 05:29:34;;;;;;;4.50;3.57;;;;;;;;;;5120072;28;21117;-61
2023/01/06 05:32:01;;;;;;;5.33;3.67;;;;;;;;;;5120525;28;20291;-60
2023/01/06 05:34:30;;;;;;;3.93;3.23;;;;;;;;;;5118587;28;20216;-61
2023/01/06 05:36:58;;;;;;;6.43;3.67;;;;;;;;;;5118693;27;20296;-60
2023/01/06 05:39:25;;;;;;;3.87;3.50;;;;;;;;;;5119605;28;20238;-60
2023/01/06 05:41:53;;;;;;;4.00;3.40;;;;;;;;;;5119644;28;20288;-60
2023/01/06 05:44:21;;;;;;;2.90;2.60;;;;;;;;;;5121068;28;20231;-61
2023/01/06 05:46:51;;;;;;;3.90;3.37;;;;;;;;;;5120637;28;20224;-59
2023/01/06 05:49:19;;;;;;;4.10;3.73;;;;;;;;;;5120665;28;20672;-60
2023/01/06 05:51:47;;;;;;;3.20;2.90;;;;;;;;;;5112239;27;20644;-60
2023/01/06 05:54:15;;;;;;;3.77;3.30;;;;;;;;;;5113851;28;20229;-60
2023/01/06 05:56:43;;;;;;;5.43;3.47;;;;;;;;;;5120624;28;20250;-60
2023/01/06 05:59:11;;;;;;;3.63;2.97;;;;;;;;;;5120206;28;20324;-60
2023/01/06 06:01:39;;;;;;;3.33;3.03;;;;;;;;;;5120555;28;20574;-60
2023/01/06 06:04:08;;;;;;;5.27;3.43;;;;;;;;;;5120603;28;20236;-59
2023/01/06 06:06:37;;;;;;;2.87;2.60;;;;;;;;;;5118874;28;20228;-60
2023/01/06 06:09:05;;;;;;;7.37;5.37;;;;;;;;;;5118413;28;20564;-60
2023/01/06 06:11:33;;;;;;;6.07;3.93;;;;;;;;;;5109329;28;20205;-60
2023/01/06 06:14:01;;;;;;;3.57;3.27;;;;;;;;;;5120080;28;20260;-60
2023/01/06 06:16:29;;;;;;;3.93;3.53;;;;;;;;;;5126958;27;20216;-60
2023/01/06 06:18:58;;;;;;;4.43;3.30;;;;;;;;;;5116546;28;20307;-60
2023/01/06 06:21:28;;;;;;;4.13;3.27;;;;;;;;;;5120366;28;20209;-60
2023/01/06 06:23:57;;;;;;;2.67;2.47;;;;;;;;;;5120041;28;20666;-60
2023/01/06 06:26:25;;;;;;;3.27;2.87;;;;;;;;;;5120322;28;20235;-60
2023/01/06 06:28:53;;;;;;;5.60;3.13;;;;;;;;;;5115009;27;20293;-61
2023/01/06 06:31:22;;;;;;;4.50;3.00;;;;;;;;;;5106563;28;20284;-60
2023/01/06 06:33:51;;;;;;;4.87;3.40;;;;;;;;;;5109814;28;20726;-60
2023/01/06 06:36:19;;;;;;;3.73;3.17;;;;;;;;;;5102079;28;20211;-60
2023/01/06 06:38:49;;;;;;;6.03;3.27;;;;;;;;;;5115220;28;20208;-60
2023/01/06 06:41:18;;;;;;;3.20;2.90;;;;;;;;;;5119630;28;20197;-60
2023/01/06 06:43:46;;;;;;;3.90;3.00;;;;;;;;;;5119524;28;20217;-60
2023/01/06 06:46:14;;;;;;;4.13;2.97;;;;;;;;;;5113524;28;20209;-60
2023/01/06 06:48:43;;;;;;;4.27;2.57;;;;;;;;;;5119503;28;20277;-59
2023/01/06 06:51:12;;;;;;;2.73;2.53;;;;;;;;;;5118135;28;20225;-59
2023/01/06 06:53:40;;;;;;;2.97;2.40;;;;;;;;;;5116528;28;20252;-58
2023/01/06 06:56:13;;;;;;;2.73;2.53;;;;;;;;;;5118140;28;20197;-59
2023/01/06 06:58:42;;;;;;;3.37;2.53;;;;;;;;;;5115780;28;20312;-59
2023/01/06 07:01:11;;;;;;;3.23;2.97;;;;;;;;;;5120400;27;20575;-59
2023/01/06 07:03:39;;;;;;;4.07;2.80;;;;;;;;;;5110065;28;20217;-60
2023/01/06 07:06:08;;;;;;;3.13;2.77;;;;;;;;;;5105064;28;20194;-60
2023/01/06 07:08:37;;;;;;;3.63;3.33;;;;;;;;;;5118540;28;20224;-60
2023/01/06 07:11:10;;;;;;;3.70;3.27;;;;;;;;;;5116852;28;20231;-60
2023/01/06 07:13:42;;;;;;;3.20;2.90;;;;;;;;;;5110217;28;20216;-60
2023/01/06 07:16:10;;;;;;;3.60;2.87;;;;;;;;;;5118674;28;20204;-60
2023/01/06 07:18:39;;;;;;;4.57;3.20;;;;;;;;;;5119214;28;20239;-60
2023/01/06 07:21:07;;;;;;;3.63;3.23;;;;;;;;;;5115732;28;20285;-60
2023/01/06 07:23:36;;;;;;;2.73;2.53;;;;;;;;;;5113185;28;20231;-60
2023/01/06 07:26:04;;;;;;;3.10;2.63;;;;;;;;;;5120503;28;20205;-61
2023/01/06 07:28:34;;;;;;;3.40;3.10;;;;;;;;;;5119910;28;20311;-60
2023/01/06 07:31:03;;;;;;;4.83;3.17;;;;;;;;;;5115142;28;20201;-60
2023/01/06 07:33:31;;;;;;;3.20;2.90;;;;;;;;;;5114007;28;20229;-60
2023/01/06 07:35:59;;;;;;;4.10;3.37;;;;;;;;;;5118561;28;20245;-60
2023/01/06 07:38:30;;;;;;;4.80;3.07;;;;;;;;;;5118849;28;20270;-59
2023/01/06 07:41:00;;;;;;;4.00;3.17;;;;;;;;;;5119127;28;20205;-60
2023/01/06 07:43:28;;;;;;;4.13;3.53;;;;;;;;;;5106557;28;20221;-60
2023/01/06 07:45:58;;;;;;;5.33;3.47;;;;;;;;;;5118731;28;20211;-60
2023/01/06 07:48:27;;;;;;;4.23;3.43;;;;;;;;;;5116466;28;20237;-60
2023/01/06 07:50:57;;;;;;;4.57;3.50;;;;;;;;;;5118524;28;20207;-60
2023/01/06 07:53:25;;;;;;;3.83;3.40;;;;;;;;;;5118660;28;20304;-60
2023/01/06 07:55:54;;;;;;;4.10;3.37;;;;;;;;;;5118653;28;20296;-59
2023/01/06 07:58:23;;;;;;;9.13;5.47;;;;;;;;;;5115331;28;20224;-60
2023/01/06 08:00:52;;;;;;;5.43;4.30;;;;;;;;;;5118493;28;20201;-60
2023/01/06 08:03:22;;;;;;;5.23;4.03;;;;;;;;;;5118265;28;20255;-59
2023/01/06 08:05:51;;;;;;;4.93;4.43;;;;;;;;;;5107943;28;20606;-60
2023/01/06 08:08:19;;;;;;;4.67;4.03;;;;;;;;;;5118620;28;20228;-59
2023/01/06 08:10:47;;;;;;;4.40;4.00;;;;;;;;;;5118579;28;20219;-59
2023/01/06 08:13:15;;;;;;;5.47;3.97;;;;;;;;;;5118166;28;20252;-59
2023/01/06 08:15:50;;;;;;;4.00;3.60;;;;;;;;;;5118514;28;20204;-59
2023/01/06 08:18:18;;;;;;;5.17;4.20;;;;;;;;;;5118362;28;20226;-60
2023/01/06 08:20:48;;;;;;;6.67;4.83;;;;;;;;;;5117770;28;20272;-60
2023/01/06 08:23:16;;;;;;;4.97;4.10;;;;;;;;;;5114937;28;20341;-60
2023/01/06 08:25:44;;;;;;;5.37;4.13;;;;;;;;;;5118025;28;20630;-60
2023/01/06 08:28:12;;;;;;;6.10;4.00;;;;;;;;;;5118143;28;20695;-60
2023/01/06 08:30:42;;;;;;;4.57;3.30;;;;;;;;;;5117240;28;20756;-60
2023/01/06 08:33:12;;;;;;;4.83;3.93;;;;;;;;;;5117788;28;20699;-60
2023/01/06 08:35:42;;;;;;;4.30;3.33;;;;;;;;;;5117919;28;20291;-60
2023/01/06 08:38:12;;;;;;;3.47;2.83;;;;;;;;;;5118471;28;20561;-60
2023/01/06 08:40:40;;;;;;;3.47;3.00;;;;;;;;;;5106867;28;20209;-60
2023/01/06 08:43:08;;;;;;;4.33;3.80;;;;;;;;;;5104003;28;20221;-60
2023/01/06 08:45:39;;;;;;;3.47;3.10;;;;;;;;;;5105147;28;20205;-59
2023/01/06 08:48:07;;;;;;;6.10;3.40;;;;;;;;;;5111146;28;20676;-60
2023/01/06 08:50:35;;;;;;;3.43;3.10;;;;;;;;;;5117514;28;20671;-60
2023/01/06 08:53:04;;;;;;;4.30;3.10;;;;;;;;;;5117976;28;20229;-60
2023/01/06 08:55:33;;;;;;;3.53;3.23;;;;;;;;;;5111074;28;20209;-59
2023/01/06 08:58:01;;;;;;;3.63;2.93;;;;;;;;;;5117061;28;20755;-60
2023/01/06 09:00:29;;;;;;;3.50;3.00;;;;;;;;;;5117723;28;20212;-60
2023/01/06 09:02:58;;;;;;;2.97;2.67;;;;;;;;;;5106548;28;20225;-66
2023/01/06 09:05:26;;;;;;;320.93;182.17;;;;;;;;;;5117380;28;20209;-61
2023/01/06 09:07:54;;;;;;;19.70;13.17;;;;;;;;;;5117598;28;20287;-60
2023/01/06 09:10:22;;;;;;;131.17;74.67;;;;;;;;;;5117477;28;20205;-60
2023/01/06 09:12:52;;;;;;;8.67;6.37;;;;;;;;;;5116743;28;20226;-60
2023/01/06 09:15:20;;;;;;;5.50;3.93;;;;;;;;;;5117695;28;20216;-60
2023/01/06 09:17:48;;;;;;;6.27;3.53;;;;;;;;;;5117370;28;20213;-60
2023/01/06 09:20:16;;;;;;;3.27;2.97;;;;;;;;;;5111945;28;20197;-61
2023/01/06 09:22:45;;;;;;;3.80;3.00;;;;;;;;;;5117066;28;20254;-61
2023/01/06 09:25:13;;;;;;;2.67;2.47;;;;;;;;;;5115813;28;20678;-61
2023/01/06 09:27:41;;;;;;;5.13;3.77;;;;;;;;;;5116370;28;20199;-60
2023/01/06 09:30:11;;;;;;;5.43;3.37;;;;;;;;;;5113900;28;20249;-60
2023/01/06 09:32:40;;;;;;;4.20;2.97;;;;;;;;;;5116855;28;20220;-60
2023/01/06 09:35:08;;;;;;;8.40;4.00;;;;;;;;;;5111811;28;20202;-60
2023/01/06 09:37:36;;;;;;;4.97;3.37;;;;;;;;;;5117301;28;20254;-60
2023/01/06 09:40:05;;;;;;;6.30;3.67;;;;;;;;;;5117537;28;20201;-60
2023/01/06 09:42:48;;;;;;;4.00;3.50;;;;;;;;;;5120670;28;20239;-60
2023/01/06 09:45:19;;;;;;;3.90;3.50;;;;;;;;;;5121078;28;20204;-60
2023/01/06 09:47:49;;;;;;;3.20;2.90;;;;;;;;;;5111337;28;20236;-60
2023/01/06 09:50:20;;;;;;;5.47;3.30;;;;;;;;;;5115936;28;20259;-60
2023/01/06 09:52:51;;;;;;;3.70;3.13;;;;;;;;;;5119348;28;20227;-61
2023/01/06 09:55:21;;;;;;;3.70;3.13;;;;;;;;;;5119993;28;20208;-60
2023/01/06 09:57:52;;;;;;;5.43;3.47;;;;;;;;;;5120526;28;20316;-60
2023/01/06 10:00:26;;;;;;;5.20;3.73;;;;;;;;;;5111751;28;20198;-61
2023/01/06 10:02:55;;;;;;;6.00;3.97;;;;;;;;;;5101285;28;20223;-60
2023/01/06 10:05:28;;;;;;;4.90;3.80;;;;;;;;;;5119308;28;20250;-60
2023/01/06 10:08:00;;;;;;;4.40;3.60;;;;;;;;;;5115307;28;20201;-60
2023/01/06 10:10:33;;;;;;;4.27;3.87;;;;;;;;;;5119581;28;20220;-60
2023/01/06 10:13:10;;;;;;;5.30;4.73;;;;;;;;;;5120195;28;20229;-60
2023/01/06 10:15:44;;;;;;;6.53;4.97;;;;;;;;;;5120348;28;20240;-60
2023/01/06 10:18:21;;;;;;;5.50;4.93;;;;;;;;;;5112285;28;20605;-60
2023/01/06 10:20:55;;;;;;;6.67;5.50;;;;;;;;;;5114706;28;20266;-60
2023/01/06 10:23:29;;;;;;;7.27;4.93;;;;;;;;;;5120276;28;20225;-60
2023/01/06 10:26:03;;;;;;;5.23;4.70;;;;;;;;;;5117086;28;20284;-60
2023/01/06 10:28:34;;;;;;;7.17;5.47;;;;;;;;;;5102857;28;20198;-60
2023/01/06 10:31:05;;;;;;;7.30;4.50;;;;;;;;;;5117353;28;20588;-60
2023/01/06 10:33:36;;;;;;;7.17;5.63;;;;;;;;;;5119395;28;20710;-60
2023/01/06 10:36:10;;;;;;;6.20;5.60;;;;;;;;;;5119593;28;20674;-59
2023/01/06 10:38:40;;;;;;;9.10;4.97;;;;;;;;;;5111507;28;20205;-60
2023/01/06 10:41:12;;;;;;;6.37;5.47;;;;;;;;;;5112606;27;20197;-60
2023/01/06 10:43:40;;;;;;;6.33;5.07;;;;;;;;;;5117501;28;20680;-60
2023/01/06 10:46:10;;;;;;;8.13;5.60;;;;;;;;;;5119149;28;20193;-60
2023/01/06 10:48:39;;;;;;;6.10;5.50;;;;;;;;;;5118714;28;20231;-60
2023/01/06 10:51:32;;;;;;;6.10;5.20;;;;;;;;;;5118141;28;20217;-60
2023/01/06 10:54:01;;;;;;;7.60;4.73;;;;;;;;;;5118975;28;20217;-59
2023/01/06 10:56:30;;;;;;;6.00;4.83;;;;;;;;;;5114923;28;20201;-60
2023/01/06 10:59:03;;;;;;;5.57;4.30;;;;;;;;;;5117343;28;20244;-59
2023/01/06 11:01:33;;;;;;;4.93;4.13;;;;;;;;;;5119544;28;20205;-60
2023/01/06 11:04:08;;;;;;;7.53;4.00;;;;;;;;;;5119778;28;20277;-60
2023/01/06 11:06:39;;;;;;;4.17;3.47;;;;;;;;;;5119313;28;20261;-60
2023/01/06 11:09:21;;;;;;;10.23;4.70;;;;;;;;;;5119016;28;20652;-60
2023/01/06 11:11:50;;;;;;;4.80;4.23;;;;;;;;;;5115274;28;20229;-60
2023/01/06 11:14:19;;;;;;;5.00;4.27;;;;;;;;;;5113134;28;20224;-60
2023/01/06 11:16:56;;;;;;;3.50;2.93;;;;;;;;;;5119252;28;20737;-60
2023/01/06 11:19:32;;;;;;;2.77;2.10;;;;;;;;;;5119127;28;20242;-60
2023/01/06 11:22:00;;;;;;;4.70;2.30;;;;;;;;;;5119201;28;20212;-59
2023/01/06 11:24:29;;;;;;;3.87;2.37;;;;;;;;;;5118002;28;20256;-60
2023/01/06 11:26:58;;;;;;;2.70;2.30;;;;;;;;;;5109914;28;20211;-60
2023/01/06 11:29:28;;;;;;;2.87;2.67;;;;;;;;;;5116386;28;20209;-60
2023/01/06 11:32:01;;;;;;;3.77;2.87;;;;;;;;;;5118939;28;20259;-60
2023/01/06 11:34:29;;;;;;;3.93;3.10;;;;;;;;;;5118725;28;20279;-60
2023/01/06 11:36:58;;;;;;;7.03;4.07;;;;;;;;;;5118487;28;20287;-60
2023/01/06 11:39:28;;;;;;;6.80;4.23;;;;;;;;;;5118941;28;20299;-60
2023/01/06 11:42:02;;;;;;;6.60;5.20;;;;;;;;;;5118567;28;20258;-60
2023/01/06 11:44:31;;;;;;;9.33;7.07;;;;;;;;;;5118691;28;20225;-61
2023/01/06 11:47:03;;;;;;;1115.30;561.43;;;;;;;;;;5109729;28;20208;-62
2023/01/06 11:49:34;;;;;;;1999.90;999.90;;;;;;;;;;5118462;28;20208;-60
2023/01/06 11:52:02;;;;;;;1718.97;796.37;;;;;;;;;;5115666;28;20211;-59
2023/01/06 11:54:32;;;;;;;1999.90;999.90;;;;;;;;;;5102338;28;20229;-59
2023/01/06 11:57:02;;;;;;;1999.90;860.10;;;;;;;;;;5117169;28;20208;-59
2023/01/06 11:59:36;;;;;;;1999.90;774.93;;;;;;;;;;5114947;28;20225;-59
2023/01/06 12:02:11;;;;;;;1999.90;957.03;;;;;;;;;;5116226;27;20634;-59
2023/01/06 12:04:44;;;;;;;1999.90;832.73;;;;;;;;;;5105101;28;20234;-59
2023/01/06 12:07:15;;;;;;;1999.90;986.73;;;;;;;;;;5118573;28;20288;-59
2023/01/06 12:09:44;;;;;;;311.50;159.17;;;;;;;;;;5110158;28;20201;-58
2023/01/06 12:12:16;;;;;;;236.43;128.13;;;;;;;;;;5118494;28;20203;-58
2023/01/06 12:14:44;;;;;;;98.27;45.43;;;;;;;;;;5115532;28;20193;-61
2023/01/06 12:17:16;;;;;;;72.43;26.70;;;;;;;;;;5106548;28;20214;-59
2023/01/06 12:19:46;;;;;;;13.23;7.73;;;;;;;;;;5107245;28;20223;-59
2023/01/06 12:22:19;;;;;;;8.20;4.43;;;;;;;;;;5114312;28;20197;-61
2023/01/06 12:24:49;;;;;;;5.57;3.90;;;;;;;;;;5117585;28;20201;-60
2023/01/06 12:27:22;;;;;;;5.13;4.53;;;;;;;;;;5109258;28;20268;-60
2023/01/06 12:29:50;;;;;;;7.53;4.63;;;;;;;;;;5113734;28;20200;-59
2023/01/06 12:32:21;;;;;;;7.60;4.97;;;;;;;;;;5115645;28;20204;-58
2023/01/06 12:34:50;;;;;;;5.60;4.70;;;;;;;;;;5117278;28;20200;-59
2023/01/06 12:37:20;;;;;;;6.77;4.73;;;;;;;;;;5117996;28;20232;-59
2023/01/06 12:39:55;;;;;;;5.70;4.80;;;;;;;;;;5117863;28;20633;-59
2023/01/06 12:42:26;;;;;;;5.13;4.53;;;;;;;;;;5117278;28;20764;-59
2023/01/06 12:44:56;;;;;;;6.30;4.73;;;;;;;;;;5105572;28;20209;-59
2023/01/06 12:47:28;;;;;;;6.77;4.17;;;;;;;;;;5117696;28;20687;-59
2023/01/06 12:49:59;;;;;;;6.53;5.23;;;;;;;;;;5117093;28;20725;-59
2023/01/06 12:52:30;;;;;;;5.23;4.47;;;;;;;;;;5117651;28;20291;-60
2023/01/06 12:54:59;;;;;;;10.13;4.80;;;;;;;;;;5117442;28;20292;-60
2023/01/06 12:57:37;;;;;;;7.17;4.63;;;;;;;;;;5117579;28;20215;-60
2023/01/06 13:00:15;;;;;;;6.03;4.50;;;;;;;;;;5111802;28;20560;-59
2023/01/06 13:02:52;;;;;;;7.37;4.00;;;;;;;;;;5115059;28;20663;-59
2023/01/06 13:05:41;;;;;;;7.40;4.60;;;;;;;;;;5100572;28;20200;-59
2023/01/06 13:08:17;;;;;;;6.60;4.83;;;;;;;;;;5111504;28;20264;-59
2023/01/06 13:10:47;;;;;;;5.43;4.17;;;;;;;;;;5117541;28;20584;-59
2023/01/06 13:13:31;;;;;;;8.00;4.00;;;;;;;;;;5118072;28;20224;-59
2023/01/06 13:16:01;;;;;;;6.30;3.57;;;;;;;;;;5118538;28;20215;-59
2023/01/06 13:18:33;;;;;;;5.17;4.00;;;;;;;;;;5121959;28;20205;-60
2023/01/06 13:21:04;;;;;;;5.37;4.20;;;;;;;;;;5121200;28;20201;-59
2023/01/06 13:23:49;;;;;;;4.93;3.73;;;;;;;;;;5121538;28;20225;-60
2023/01/06 13:26:23;;;;;;;7.40;3.50;;;;;;;;;;5121617;28;20703;-59
2023/01/06 13:28:58;;;;;;;4.97;4.37;;;;;;;;;;5121811;28;20208;-59
2023/01/06 13:31:32;;;;;;;5.70;3.87;;;;;;;;;;5120755;28;20227;-59
2023/01/06 13:34:18;;;;;;;5.63;4.90;;;;;;;;;;5119821;28;20232;-59
2023/01/06 13:37:01;;;;;;;4.57;4.17;;;;;;;;;;5120091;28;20211;-59
2023/01/06 13:39:33;;;;;;;5.10;4.07;;;;;;;;;;5120164;28;20211;-59
2023/01/06 13:42:03;;;;;;;4.13;3.47;;;;;;;;;;5118643;28;20716;-59
2023/01/06 13:44:34;;;;;;;5.50;3.87;;;;;;;;;;5120145;27;20225;-59
2023/01/06 13:47:04;;;;;;;4.47;4.07;;;;;;;;;;5121283;28;20205;-60
2023/01/06 13:49:34;;;;;;;4.63;3.93;;;;;;;;;;5121068;28;20240;-59
2023/01/06 13:52:02;;;;;;;6.40;4.73;;;;;;;;;;5121068;28;20235;-59
2023/01/06 13:54:49;;;;;;;6.87;5.27;;;;;;;;;;5120995;28;20229;-60
2023/01/06 13:57:24;;;;;;;10.93;6.50;;;;;;;;;;5121065;28;20228;-60
2023/01/06 13:59:53;;;;;;;10.80;5.23;;;;;;;;;;5120932;28;20235;-60
2023/01/06 14:02:54;;;;;;;8.87;5.20;;;;;;;;;;5121001;28;20232;-59
2023/01/06 14:05:42;;;;;;;11.10;5.20;;;;;;;;;;5024958;28;20294;-60
2023/01/06 14:08:16;;;;;;;7.23;4.63;;;;;;;;;;5033425;28;20208;-59
2023/01/06 14:10:44;;;;;;;8.80;4.20;;;;;;;;;;5090239;28;20215;-59
2023/01/06 14:13:20;;;;;;;6.77;3.97;;;;;;;;;;5120678;28;20584;-59
2023/01/06 14:15:54;;;;;;;9.47;4.27;;;;;;;;;;5120634;28;20208;-59
2023/01/06 14:18:30;;;;;;;4.50;3.73;;;;;;;;;;5120949;28;20209;-59
2023/01/06 14:21:00;;;;;;;2.73;2.53;;;;;;;;;;5120487;28;20208;-59
2023/01/06 14:23:30;;;;;;;10.00;3.60;;;;;;;;;;5120428;28;20225;-59
2023/01/06 14:25:58;;;;;;;5.53;3.57;;;;;;;;;;5120676;27;20219;-59
2023/01/06 14:28:28;;;;;;;4.07;3.30;;;;;;;;;;5119393;28;20209;-60
2023/01/06 14:31:11;;;;;;;5.23;3.30;;;;;;;;;;5120247;28;20208;-59
2023/01/06 14:33:39;;;;;;;3.53;2.80;;;;;;;;;;5104051;28;20637;-59
2023/01/06 14:36:11;;;;;;;6.20;3.73;;;;;;;;;;5119907;27;20628;-60
2023/01/06 14:38:43;;;;;;;4.97;2.57;;;;;;;;;;5120145;28;20671;-59
2023/01/06 14:41:17;;;;;;;4.47;3.20;;;;;;;;;;5120487;28;20250;-59
2023/01/06 14:43:50;;;;;;;3.57;2.60;;;;;;;;;;5120042;28;20647;-59
2023/01/06 14:46:19;;;;;;;4.73;2.90;;;;;;;;;;5120444;27;20204;-60
2023/01/06 14:48:50;;;;;;;6.97;3.00;;;;;;;;;;5120013;28;20292;-60
2023/01/06 14:51:20;;;;;;;3.57;3.20;;;;;;;;;;5119854;28;20221;-59
2023/01/06 14:53:53;;;;;;;3.70;2.43;;;;;;;;;;5118226;28;20228;-60
2023/01/06 14:56:23;;;;;;;3.27;2.10;;;;;;;;;;5113175;28;20200;-59
2023/01/06 14:58:51;;;;;;;3.13;2.43;;;;;;;;;;5119577;28;20586;-59
2023/01/06 15:01:23;;;;;;;4.47;2.83;;;;;;;;;;5119584;28;20209;-59
2023/01/06 15:03:55;;;;;;;2.90;2.50;;;;;;;;;;5119782;28;20227;-59